Decoded Metar for KRHP (ANDREWS in NC, USA) (IATA:RHP) | Meteo·Mobile Aviation Weather
aviador You're here:

KRHP Decoded Metar

ANDREWS in NC, USA
Report Time2018-11-21 08:00:00
UTC Time2018-11-21 08:13:26
Flight Rules vfr VFR
WindCalm
Visibility9999 m
Phenomena:N/A
Clouds:N/A
CeilingNone
Temp-2°C (ISA -14)
Dew Point-2°C (100% RH)
AAT-4.3°C
QNH1024 hPa
Density Alt-262 ft
Elevation1,699 ft
Report Wrong Elevation
Raw Report
KRHP 210800Z AUTO 00000KT 10SM CLR M02/M02 A3024 RMK AO2
T10191019=

Extra information for KRHP:More info

Metar Taf Metar & Taf Last 4 Metars F.Rules Stats Wind Profile Meteogram Temp Stats Airport Information Weather charts Add Link Nearby VenuesMetar ALERT Operation Metar Decoded Social comments

AIRNAV info for KRHP